sensor_id;sensor_type;location;lat;lon;timestamp;P1;durP1;ratioP1;P2;durP2;ratioP2
505;SDS011;551;48.524;9.056;2023-06-14T00:02:12;6.37;;;4.70;;
505;SDS011;551;48.524;9.056;2023-06-14T00:04:37;5.90;;;4.43;;
505;SDS011;551;48.524;9.056;2023-06-14T00:07:04;7.40;;;4.97;;
505;SDS011;551;48.524;9.056;2023-06-14T00:09:33;6.43;;;4.50;;
505;SDS011;551;48.524;9.056;2023-06-14T00:11:58;4.70;;;3.97;;
505;SDS011;551;48.524;9.056;2023-06-14T00:14:24;7.90;;;5.53;;
505;SDS011;551;48.524;9.056;2023-06-14T00:16:49;10.27;;;4.77;;
505;SDS011;551;48.524;9.056;2023-06-14T00:19:17;8.93;;;4.70;;
505;SDS011;551;48.524;9.056;2023-06-14T00:21:43;9.17;;;5.00;;
505;SDS011;551;48.524;9.056;2023-06-14T00:24:08;5.83;;;4.00;;
505;SDS011;551;48.524;9.056;2023-06-14T00:26:34;6.70;;;5.00;;
505;SDS011;551;48.524;9.056;2023-06-14T00:28:59;4.93;;;4.53;;
505;SDS011;551;48.524;9.056;2023-06-14T00:31:25;7.50;;;4.27;;
505;SDS011;551;48.524;9.056;2023-06-14T00:33:50;7.37;;;4.20;;
505;SDS011;551;48.524;9.056;2023-06-14T00:36:16;5.37;;;4.73;;
505;SDS011;551;48.524;9.056;2023-06-14T00:38:41;5.70;;;4.67;;
505;SDS011;551;48.524;9.056;2023-06-14T00:41:07;5.70;;;4.70;;
505;SDS011;551;48.524;9.056;2023-06-14T00:43:32;10.93;;;5.00;;
505;SDS011;551;48.524;9.056;2023-06-14T00:45:59;6.53;;;5.23;;
505;SDS011;551;48.524;9.056;2023-06-14T00:48:25;6.67;;;5.20;;
505;SDS011;551;48.524;9.056;2023-06-14T00:50:51;4.90;;;4.50;;
505;SDS011;551;48.524;9.056;2023-06-14T00:53:17;5.80;;;4.83;;
505;SDS011;551;48.524;9.056;2023-06-14T00:55:45;7.37;;;4.73;;
505;SDS011;551;48.524;9.056;2023-06-14T00:58:11;10.60;;;5.77;;
505;SDS011;551;48.524;9.056;2023-06-14T01:00:37;7.63;;;4.80;;
505;SDS011;551;48.524;9.056;2023-06-14T01:03:03;5.03;;;4.63;;
505;SDS011;551;48.524;9.056;2023-06-14T01:05:29;6.43;;;5.23;;
505;SDS011;551;48.524;9.056;2023-06-14T01:08:17;5.50;;;5.00;;
505;SDS011;551;48.524;9.056;2023-06-14T01:11:07;8.97;;;5.30;;
505;SDS011;551;48.524;9.056;2023-06-14T01:13:42;7.90;;;5.20;;
505;SDS011;551;48.524;9.056;2023-06-14T01:16:10;5.83;;;5.20;;
505;SDS011;551;48.524;9.056;2023-06-14T01:18:37;8.67;;;5.27;;
505;SDS011;551;48.524;9.056;2023-06-14T01:21:03;6.07;;;5.57;;
505;SDS011;551;48.524;9.056;2023-06-14T01:23:32;5.23;;;4.70;;
505;SDS011;551;48.524;9.056;2023-06-14T01:25:58;6.30;;;5.30;;
505;SDS011;551;48.524;9.056;2023-06-14T01:28:24;6.67;;;4.60;;
505;SDS011;551;48.524;9.056;2023-06-14T01:30:56;5.37;;;4.77;;
505;SDS011;551;48.524;9.056;2023-06-14T01:33:28;9.10;;;5.00;;
505;SDS011;551;48.524;9.056;2023-06-14T01:35:55;6.43;;;5.13;;
505;SDS011;551;48.524;9.056;2023-06-14T01:38:23;9.27;;;5.67;;
505;SDS011;551;48.524;9.056;2023-06-14T01:40:50;6.50;;;5.13;;
505;SDS011;551;48.524;9.056;2023-06-14T01:43:19;5.73;;;4.70;;
505;SDS011;551;48.524;9.056;2023-06-14T01:45:45;4.80;;;4.30;;
505;SDS011;551;48.524;9.056;2023-06-14T01:48:12;10.30;;;5.20;;
505;SDS011;551;48.524;9.056;2023-06-14T01:50:38;5.43;;;4.80;;
505;SDS011;551;48.524;9.056;2023-06-14T01:53:06;5.20;;;4.70;;
505;SDS011;551;48.524;9.056;2023-06-14T01:55:33;7.73;;;5.00;;
505;SDS011;551;48.524;9.056;2023-06-14T01:58:02;6.17;;;5.40;;
505;SDS011;551;48.524;9.056;2023-06-14T02:00:30;4.73;;;4.23;;
505;SDS011;551;48.524;9.056;2023-06-14T02:02:56;5.77;;;4.50;;
505;SDS011;551;48.524;9.056;2023-06-14T02:05:22;5.43;;;4.73;;
505;SDS011;551;48.524;9.056;2023-06-14T02:07:47;6.00;;;5.07;;
505;SDS011;551;48.524;9.056;2023-06-14T02:10:13;10.50;;;5.33;;
505;SDS011;551;48.524;9.056;2023-06-14T02:12:39;6.07;;;5.00;;
505;SDS011;551;48.524;9.056;2023-06-14T02:15:05;6.33;;;5.73;;
505;SDS011;551;48.524;9.056;2023-06-14T02:17:31;7.73;;;5.80;;
505;SDS011;551;48.524;9.056;2023-06-14T02:19:57;7.63;;;4.80;;
505;SDS011;551;48.524;9.056;2023-06-14T02:22:23;7.73;;;5.50;;
505;SDS011;551;48.524;9.056;2023-06-14T02:24:48;6.30;;;5.43;;
505;SDS011;551;48.524;9.056;2023-06-14T02:27:15;7.43;;;4.93;;
505;SDS011;551;48.524;9.056;2023-06-14T02:29:40;5.87;;;5.33;;
505;SDS011;551;48.524;9.056;2023-06-14T02:32:06;5.43;;;4.73;;
505;SDS011;551;48.524;9.056;2023-06-14T02:34:32;7.70;;;5.37;;
505;SDS011;551;48.524;9.056;2023-06-14T02:36:59;7.40;;;6.27;;
505;SDS011;551;48.524;9.056;2023-06-14T02:39:24;5.50;;;5.00;;
505;SDS011;551;48.524;9.056;2023-06-14T02:41:50;7.20;;;6.50;;
505;SDS011;551;48.524;9.056;2023-06-14T02:44:17;9.00;;;5.70;;
505;SDS011;551;48.524;9.056;2023-06-14T02:46:43;6.50;;;5.90;;
505;SDS011;551;48.524;9.056;2023-06-14T02:49:10;10.47;;;6.27;;
505;SDS011;551;48.524;9.056;2023-06-14T02:51:36;5.60;;;4.90;;
505;SDS011;551;48.524;9.056;2023-06-14T02:54:01;6.43;;;4.90;;
505;SDS011;551;48.524;9.056;2023-06-14T02:56:27;7.23;;;4.93;;
505;SDS011;551;48.524;9.056;2023-06-14T02:58:53;8.50;;;5.33;;
505;SDS011;551;48.524;9.056;2023-06-14T03:01:19;5.00;;;4.60;;
505;SDS011;551;48.524;9.056;2023-06-14T03:03:45;6.37;;;5.73;;
505;SDS011;551;48.524;9.056;2023-06-14T03:06:11;8.07;;;5.40;;
505;SDS011;551;48.524;9.056;2023-06-14T03:08:37;5.80;;;4.83;;
505;SDS011;551;48.524;9.056;2023-06-14T03:11:04;11.00;;;5.73;;
505;SDS011;551;48.524;9.056;2023-06-14T03:13:34;8.53;;;5.33;;
505;SDS011;551;48.524;9.056;2023-06-14T03:16:00;5.57;;;5.00;;
505;SDS011;551;48.524;9.056;2023-06-14T03:18:29;7.20;;;6.23;;
505;SDS011;551;48.524;9.056;2023-06-14T03:20:56;6.27;;;5.67;;
505;SDS011;551;48.524;9.056;2023-06-14T03:23:23;8.90;;;5.83;;
505;SDS011;551;48.524;9.056;2023-06-14T03:25:50;6.23;;;5.00;;
505;SDS011;551;48.524;9.056;2023-06-14T03:28:16;8.27;;;5.80;;
505;SDS011;551;48.524;9.056;2023-06-14T03:30:42;7.90;;;5.87;;
505;SDS011;551;48.524;9.056;2023-06-14T03:33:07;6.80;;;5.70;;
505;SDS011;551;48.524;9.056;2023-06-14T03:35:33;6.70;;;5.33;;
505;SDS011;551;48.524;9.056;2023-06-14T03:37:59;7.10;;;5.90;;
505;SDS011;551;48.524;9.056;2023-06-14T03:40:27;6.90;;;6.10;;
505;SDS011;551;48.524;9.056;2023-06-14T03:42:53;8.40;;;5.77;;
505;SDS011;551;48.524;9.056;2023-06-14T03:45:19;6.40;;;5.80;;
505;SDS011;551;48.524;9.056;2023-06-14T03:47:46;9.33;;;5.60;;
505;SDS011;551;48.524;9.056;2023-06-14T03:50:11;7.70;;;5.97;;
505;SDS011;551;48.524;9.056;2023-06-14T03:52:37;9.70;;;6.37;;
505;SDS011;551;48.524;9.056;2023-06-14T03:55:03;10.37;;;5.80;;
505;SDS011;551;48.524;9.056;2023-06-14T03:57:29;8.40;;;6.20;;
505;SDS011;551;48.524;9.056;2023-06-14T03:59:55;8.60;;;6.77;;
505;SDS011;551;48.524;9.056;2023-06-14T04:02:21;6.03;;;5.43;;
505;SDS011;551;48.524;9.056;2023-06-14T04:04:47;6.43;;;5.70;;
505;SDS011;551;48.524;9.056;2023-06-14T04:07:13;8.03;;;5.90;;
505;SDS011;551;48.524;9.056;2023-06-14T04:09:39;5.93;;;4.93;;
505;SDS011;551;48.524;9.056;2023-06-14T04:12:06;8.23;;;6.50;;
505;SDS011;551;48.524;9.056;2023-06-14T04:14:33;8.40;;;5.83;;
505;SDS011;551;48.524;9.056;2023-06-14T04:16:59;7.33;;;5.87;;
505;SDS011;551;48.524;9.056;2023-06-14T04:19:25;6.40;;;5.70;;
505;SDS011;551;48.524;9.056;2023-06-14T04:21:50;6.10;;;5.53;;
505;SDS011;551;48.524;9.056;2023-06-14T04:24:17;7.07;;;5.40;;
505;SDS011;551;48.524;9.056;2023-06-14T04:26:43;5.50;;;5.00;;
505;SDS011;551;48.524;9.056;2023-06-14T04:29:13;9.13;;;6.43;;
505;SDS011;551;48.524;9.056;2023-06-14T04:31:41;6.33;;;5.30;;
505;SDS011;551;48.524;9.056;2023-06-14T04:34:07;9.50;;;5.80;;
505;SDS011;551;48.524;9.056;2023-06-14T04:36:32;7.70;;;6.20;;
505;SDS011;551;48.524;9.056;2023-06-14T04:39:06;6.53;;;5.83;;
505;SDS011;551;48.524;9.056;2023-06-14T04:41:32;8.30;;;6.07;;
505;SDS011;551;48.524;9.056;2023-06-14T04:44:00;9.23;;;6.13;;
505;SDS011;551;48.524;9.056;2023-06-14T04:46:29;7.63;;;6.07;;
505;SDS011;551;48.524;9.056;2023-06-14T04:48:57;9.07;;;6.20;;
505;SDS011;551;48.524;9.056;2023-06-14T04:51:27;7.43;;;6.10;;
505;SDS011;551;48.524;9.056;2023-06-14T04:53:57;8.07;;;6.00;;
505;SDS011;551;48.524;9.056;2023-06-14T04:56:23;9.63;;;6.27;;
505;SDS011;551;48.524;9.056;2023-06-14T04:58:50;6.43;;;5.70;;
505;SDS011;551;48.524;9.056;2023-06-14T05:01:16;8.53;;;5.90;;
505;SDS011;551;48.524;9.056;2023-06-14T05:03:42;11.03;;;5.63;;
505;SDS011;551;48.524;9.056;2023-06-14T05:06:09;6.03;;;5.50;;
505;SDS011;551;48.524;9.056;2023-06-14T05:08:36;6.60;;;6.00;;
505;SDS011;551;48.524;9.056;2023-06-14T05:11:02;8.50;;;6.77;;
505;SDS011;551;48.524;9.056;2023-06-14T05:13:27;8.73;;;5.90;;
505;SDS011;551;48.524;9.056;2023-06-14T05:15:53;7.13;;;6.00;;
505;SDS011;551;48.524;9.056;2023-06-14T05:18:18;8.13;;;6.57;;
505;SDS011;551;48.524;9.056;2023-06-14T05:20:44;11.57;;;6.97;;
505;SDS011;551;48.524;9.056;2023-06-14T05:23:11;11.23;;;6.07;;
505;SDS011;551;48.524;9.056;2023-06-14T05:25:40;6.43;;;5.93;;
505;SDS011;551;48.524;9.056;2023-06-14T05:28:09;7.43;;;5.90;;
505;SDS011;551;48.524;9.056;2023-06-14T05:30:35;8.10;;;7.10;;
505;SDS011;551;48.524;9.056;2023-06-14T05:33:00;7.60;;;6.20;;
505;SDS011;551;48.524;9.056;2023-06-14T05:35:26;11.63;;;8.00;;
505;SDS011;551;48.524;9.056;2023-06-14T05:37:52;7.97;;;6.40;;
505;SDS011;551;48.524;9.056;2023-06-14T05:40:18;9.73;;;6.40;;
505;SDS011;551;48.524;9.056;2023-06-14T05:42:44;8.53;;;6.17;;
505;SDS011;551;48.524;9.056;2023-06-14T05:45:10;7.77;;;7.07;;
505;SDS011;551;48.524;9.056;2023-06-14T05:47:36;7.33;;;6.13;;
505;SDS011;551;48.524;9.056;2023-06-14T05:50:01;7.57;;;6.20;;
505;SDS011;551;48.524;9.056;2023-06-14T05:52:27;10.13;;;7.47;;
505;SDS011;551;48.524;9.056;2023-06-14T05:54:53;6.60;;;6.00;;
505;SDS011;551;48.524;9.056;2023-06-14T05:57:18;7.40;;;6.67;;
505;SDS011;551;48.524;9.056;2023-06-14T05:59:44;9.53;;;7.07;;
505;SDS011;551;48.524;9.056;2023-06-14T06:02:10;7.33;;;6.63;;
505;SDS011;551;48.524;9.056;2023-06-14T06:04:35;12.23;;;7.37;;
505;SDS011;551;48.524;9.056;2023-06-14T06:07:01;7.40;;;6.57;;
505;SDS011;551;48.524;9.056;2023-06-14T06:09:26;7.77;;;7.07;;
505;SDS011;551;48.524;9.056;2023-06-14T06:11:52;9.03;;;7.17;;
505;SDS011;551;48.524;9.056;2023-06-14T06:14:20;8.57;;;6.40;;
505;SDS011;551;48.524;9.056;2023-06-14T06:16:46;13.93;;;7.03;;
505;SDS011;551;48.524;9.056;2023-06-14T06:19:11;8.27;;;5.97;;
505;SDS011;551;48.524;9.056;2023-06-14T06:21:37;7.00;;;6.30;;
505;SDS011;551;48.524;9.056;2023-06-14T06:24:02;7.50;;;6.73;;
505;SDS011;551;48.524;9.056;2023-06-14T06:26:30;9.80;;;7.20;;
505;SDS011;551;48.524;9.056;2023-06-14T06:28:56;7.33;;;6.63;;
505;SDS011;551;48.524;9.056;2023-06-14T06:31:22;8.30;;;6.63;;
505;SDS011;551;48.524;9.056;2023-06-14T06:33:47;9.83;;;7.80;;
505;SDS011;551;48.524;9.056;2023-06-14T06:36:13;8.93;;;7.20;;
505;SDS011;551;48.524;9.056;2023-06-14T06:38:38;8.70;;;6.33;;
505;SDS011;551;48.524;9.056;2023-06-14T06:41:04;10.87;;;7.13;;
505;SDS011;551;48.524;9.056;2023-06-14T06:43:29;9.20;;;6.73;;
505;SDS011;551;48.524;9.056;2023-06-14T06:45:55;7.20;;;6.47;;
505;SDS011;551;48.524;9.056;2023-06-14T06:48:21;8.77;;;6.20;;
505;SDS011;551;48.524;9.056;2023-06-14T06:50:46;11.23;;;7.20;;
505;SDS011;551;48.524;9.056;2023-06-14T06:53:12;9.50;;;7.50;;
505;SDS011;551;48.524;9.056;2023-06-14T06:55:37;10.83;;;6.77;;
505;SDS011;551;48.524;9.056;2023-06-14T06:58:02;6.83;;;6.23;;
505;SDS011;551;48.524;9.056;2023-06-14T07:00:30;8.80;;;6.30;;
505;SDS011;551;48.524;9.056;2023-06-14T07:02:55;11.40;;;6.37;;
505;SDS011;551;48.524;9.056;2023-06-14T07:05:22;10.17;;;6.90;;
505;SDS011;551;48.524;9.056;2023-06-14T07:07:47;7.57;;;6.30;;
505;SDS011;551;48.524;9.056;2023-06-14T07:10:13;11.20;;;7.10;;
505;SDS011;551;48.524;9.056;2023-06-14T07:12:39;13.67;;;8.30;;
505;SDS011;551;48.524;9.056;2023-06-14T07:15:07;7.70;;;7.00;;
505;SDS011;551;48.524;9.056;2023-06-14T07:17:33;7.20;;;6.40;;
505;SDS011;551;48.524;9.056;2023-06-14T07:20:02;6.97;;;6.00;;
505;SDS011;551;48.524;9.056;2023-06-14T07:22:32;6.37;;;5.80;;
505;SDS011;551;48.524;9.056;2023-06-14T07:24:58;8.07;;;5.50;;
505;SDS011;551;48.524;9.056;2023-06-14T07:27:23;10.37;;;6.37;;
505;SDS011;551;48.524;9.056;2023-06-14T07:29:49;6.53;;;6.10;;
505;SDS011;551;48.524;9.056;2023-06-14T07:32:14;7.30;;;6.70;;
505;SDS011;551;48.524;9.056;2023-06-14T07:34:40;7.53;;;6.83;;
505;SDS011;551;48.524;9.056;2023-06-14T07:37:05;6.50;;;6.00;;
505;SDS011;551;48.524;9.056;2023-06-14T07:39:31;7.00;;;6.40;;
505;SDS011;551;48.524;9.056;2023-06-14T07:41:56;6.77;;;5.90;;
505;SDS011;551;48.524;9.056;2023-06-14T07:44:22;8.93;;;6.30;;
505;SDS011;551;48.524;9.056;2023-06-14T07:46:47;8.37;;;6.00;;
505;SDS011;551;48.524;9.056;2023-06-14T07:49:14;7.20;;;6.50;;
505;SDS011;551;48.524;9.056;2023-06-14T07:51:40;8.93;;;6.20;;
505;SDS011;551;48.524;9.056;2023-06-14T07:54:05;6.33;;;5.73;;
505;SDS011;551;48.524;9.056;2023-06-14T07:56:32;7.33;;;6.63;;
505;SDS011;551;48.524;9.056;2023-06-14T07:58:58;6.40;;;5.67;;
505;SDS011;551;48.524;9.056;2023-06-14T08:01:23;7.03;;;6.20;;
505;SDS011;551;48.524;9.056;2023-06-14T08:03:50;7.27;;;6.57;;
505;SDS011;551;48.524;9.056;2023-06-14T08:06:16;8.77;;;6.10;;
505;SDS011;551;48.524;9.056;2023-06-14T08:08:41;6.50;;;5.90;;
505;SDS011;551;48.524;9.056;2023-06-14T08:11:07;6.93;;;6.33;;
505;SDS011;551;48.524;9.056;2023-06-14T08:13:33;7.60;;;6.50;;
505;SDS011;551;48.524;9.056;2023-06-14T08:15:58;6.57;;;5.73;;
505;SDS011;551;48.524;9.056;2023-06-14T08:18:26;6.57;;;5.80;;
505;SDS011;551;48.524;9.056;2023-06-14T08:20:51;6.33;;;5.73;;
505;SDS011;551;48.524;9.056;2023-06-14T08:23:19;6.40;;;5.87;;
505;SDS011;551;48.524;9.056;2023-06-14T08:25:46;7.70;;;5.87;;
505;SDS011;551;48.524;9.056;2023-06-14T08:28:14;6.50;;;5.37;;
505;SDS011;551;48.524;9.056;2023-06-14T08:30:41;5.50;;;4.60;;
505;SDS011;551;48.524;9.056;2023-06-14T08:33:07;5.20;;;4.90;;
505;SDS011;551;48.524;9.056;2023-06-14T08:35:33;6.20;;;5.10;;
505;SDS011;551;48.524;9.056;2023-06-14T08:38:02;5.37;;;4.90;;
505;SDS011;551;48.524;9.056;2023-06-14T08:40:28;5.47;;;4.97;;
505;SDS011;551;48.524;9.056;2023-06-14T08:42:55;9.00;;;5.67;;
505;SDS011;551;48.524;9.056;2023-06-14T08:45:23;5.40;;;5.00;;
505;SDS011;551;48.524;9.056;2023-06-14T08:47:50;12.53;;;6.33;;
505;SDS011;551;48.524;9.056;2023-06-14T08:50:20;6.90;;;5.60;;
505;SDS011;551;48.524;9.056;2023-06-14T08:52:46;5.63;;;5.23;;
505;SDS011;551;48.524;9.056;2023-06-14T08:55:17;5.77;;;5.37;;
505;SDS011;551;48.524;9.056;2023-06-14T08:57:44;5.17;;;4.67;;
505;SDS011;551;48.524;9.056;2023-06-14T09:00:14;5.80;;;5.30;;
505;SDS011;551;48.524;9.056;2023-06-14T09:02:39;6.37;;;5.70;;
505;SDS011;551;48.524;9.056;2023-06-14T09:05:11;14.37;;;5.50;;
505;SDS011;551;48.524;9.056;2023-06-14T09:07:38;5.17;;;4.77;;
505;SDS011;551;48.524;9.056;2023-06-14T09:10:11;6.23;;;5.60;;
505;SDS011;551;48.524;9.056;2023-06-14T09:12:38;10.90;;;5.50;;
505;SDS011;551;48.524;9.056;2023-06-14T09:15:07;7.43;;;5.40;;
505;SDS011;551;48.524;9.056;2023-06-14T09:17:37;5.80;;;5.30;;
505;SDS011;551;48.524;9.056;2023-06-14T09:20:07;7.83;;;5.70;;
505;SDS011;551;48.524;9.056;2023-06-14T09:22:43;6.30;;;5.30;;
505;SDS011;551;48.524;9.056;2023-06-14T09:25:08;5.83;;;5.37;;
505;SDS011;551;48.524;9.056;2023-06-14T09:27:34;6.67;;;5.87;;
505;SDS011;551;48.524;9.056;2023-06-14T09:30:04;5.30;;;4.90;;
505;SDS011;551;48.524;9.056;2023-06-14T09:32:35;6.80;;;6.10;;
505;SDS011;551;48.524;9.056;2023-06-14T09:35:09;6.97;;;5.10;;
505;SDS011;551;48.524;9.056;2023-06-14T09:37:34;7.40;;;5.70;;
505;SDS011;551;48.524;9.056;2023-06-14T09:40:00;12.57;;;6.13;;
505;SDS011;551;48.524;9.056;2023-06-14T09:42:27;5.93;;;5.53;;
505;SDS011;551;48.524;9.056;2023-06-14T09:44:55;8.47;;;5.60;;
505;SDS011;551;48.524;9.056;2023-06-14T09:47:22;6.90;;;5.03;;
505;SDS011;551;48.524;9.056;2023-06-14T09:49:50;6.47;;;5.57;;
505;SDS011;551;48.524;9.056;2023-06-14T09:52:20;6.20;;;5.70;;
505;SDS011;551;48.524;9.056;2023-06-14T09:54:47;9.40;;;5.87;;
505;SDS011;551;48.524;9.056;2023-06-14T09:57:15;6.00;;;5.50;;
505;SDS011;551;48.524;9.056;2023-06-14T09:59:43;6.60;;;5.90;;
505;SDS011;551;48.524;9.056;2023-06-14T10:02:26;6.00;;;5.40;;
505;SDS011;551;48.524;9.056;2023-06-14T10:05:04;5.80;;;5.30;;
505;SDS011;551;48.524;9.056;2023-06-14T10:10:20;6.73;;;6.07;;
505;SDS011;551;48.524;9.056;2023-06-14T10:12:46;5.40;;;5.00;;
505;SDS011;551;48.524;9.056;2023-06-14T10:15:17;5.37;;;5.00;;
505;SDS011;551;48.524;9.056;2023-06-14T10:17:50;5.53;;;5.03;;
505;SDS011;551;48.524;9.056;2023-06-14T10:23:13;5.13;;;4.73;;
505;SDS011;551;48.524;9.056;2023-06-14T10:25:56;5.37;;;4.67;;
505;SDS011;551;48.524;9.056;2023-06-14T10:28:22;6.27;;;5.57;;
505;SDS011;551;48.524;9.056;2023-06-14T10:31:02;5.37;;;4.83;;
505;SDS011;551;48.524;9.056;2023-06-14T10:33:32;6.00;;;5.47;;
505;SDS011;551;48.524;9.056;2023-06-14T10:36:23;5.60;;;5.20;;
505;SDS011;551;48.524;9.056;2023-06-14T10:41:29;6.03;;;5.43;;
505;SDS011;551;48.524;9.056;2023-06-14T10:44:30;5.40;;;4.90;;
505;SDS011;551;48.524;9.056;2023-06-14T10:47:00;5.23;;;4.80;;
505;SDS011;551;48.524;9.056;2023-06-14T10:49:45;5.23;;;4.73;;
505;SDS011;551;48.524;9.056;2023-06-14T10:52:16;5.63;;;5.13;;
505;SDS011;551;48.524;9.056;2023-06-14T10:57:24;6.50;;;5.33;;
505;SDS011;551;48.524;9.056;2023-06-14T10:59:50;6.13;;;5.63;;
505;SDS011;551;48.524;9.056;2023-06-14T11:04:48;5.90;;;5.30;;
505;SDS011;551;48.524;9.056;2023-06-14T11:07:37;5.73;;;5.27;;
505;SDS011;551;48.524;9.056;2023-06-14T11:13:04;5.97;;;5.47;;
505;SDS011;551;48.524;9.056;2023-06-14T11:15:34;5.40;;;4.90;;
505;SDS011;551;48.524;9.056;2023-06-14T11:18:01;8.17;;;6.37;;
505;SDS011;551;48.524;9.056;2023-06-14T11:20:29;7.57;;;5.10;;
505;SDS011;551;48.524;9.056;2023-06-14T11:22:56;5.37;;;4.97;;
505;SDS011;551;48.524;9.056;2023-06-14T11:25:22;5.03;;;4.73;;
505;SDS011;551;48.524;9.056;2023-06-14T11:27:51;11.30;;;5.87;;
505;SDS011;551;48.524;9.056;2023-06-14T11:30:17;5.47;;;5.07;;
505;SDS011;551;48.524;9.056;2023-06-14T11:32:45;8.60;;;5.33;;
505;SDS011;551;48.524;9.056;2023-06-14T11:35:12;6.73;;;5.40;;
505;SDS011;551;48.524;9.056;2023-06-14T11:37:38;8.70;;;5.47;;
505;SDS011;551;48.524;9.056;2023-06-14T11:40:06;5.43;;;5.00;;
505;SDS011;551;48.524;9.056;2023-06-14T11:42:34;6.03;;;5.53;;
505;SDS011;551;48.524;9.056;2023-06-14T11:45:00;7.20;;;5.57;;
505;SDS011;551;48.524;9.056;2023-06-14T11:47:31;11.40;;;5.77;;
505;SDS011;551;48.524;9.056;2023-06-14T11:49:58;8.97;;;6.00;;
505;SDS011;551;48.524;9.056;2023-06-14T11:52:24;6.23;;;5.73;;
505;SDS011;551;48.524;9.056;2023-06-14T11:54:50;5.70;;;5.20;;
505;SDS011;551;48.524;9.056;2023-06-14T11:57:17;6.27;;;5.47;;
505;SDS011;551;48.524;9.056;2023-06-14T11:59:43;5.93;;;5.30;;
505;SDS011;551;48.524;9.056;2023-06-14T12:02:13;6.10;;;5.60;;
505;SDS011;551;48.524;9.056;2023-06-14T12:04:43;7.40;;;5.53;;
505;SDS011;551;48.524;9.056;2023-06-14T12:07:12;6.00;;;5.50;;
505;SDS011;551;48.524;9.056;2023-06-14T12:12:26;5.37;;;4.77;;
505;SDS011;551;48.524;9.056;2023-06-14T12:14:51;5.73;;;5.13;;
505;SDS011;551;48.524;9.056;2023-06-14T12:17:18;7.63;;;5.90;;
505;SDS011;551;48.524;9.056;2023-06-14T12:19:45;6.33;;;5.73;;
505;SDS011;551;48.524;9.056;2023-06-14T12:22:11;5.57;;;5.07;;
505;SDS011;551;48.524;9.056;2023-06-14T12:24:38;6.47;;;5.80;;
505;SDS011;551;48.524;9.056;2023-06-14T12:27:04;8.30;;;5.90;;
505;SDS011;551;48.524;9.056;2023-06-14T12:29:30;7.57;;;5.70;;
505;SDS011;551;48.524;9.056;2023-06-14T12:31:56;6.13;;;5.57;;
505;SDS011;551;48.524;9.056;2023-06-14T12:34:23;5.40;;;4.90;;
505;SDS011;551;48.524;9.056;2023-06-14T12:36:52;6.47;;;5.90;;
505;SDS011;551;48.524;9.056;2023-06-14T12:39:18;8.53;;;5.40;;
505;SDS011;551;48.524;9.056;2023-06-14T12:41:44;10.00;;;6.53;;
505;SDS011;551;48.524;9.056;2023-06-14T12:44:10;8.47;;;6.17;;
505;SDS011;551;48.524;9.056;2023-06-14T12:46:37;11.47;;;5.77;;
505;SDS011;551;48.524;9.056;2023-06-14T12:49:04;7.20;;;5.83;;
505;SDS011;551;48.524;9.056;2023-06-14T12:51:31;8.90;;;5.67;;
505;SDS011;551;48.524;9.056;2023-06-14T12:53:57;7.23;;;4.97;;
505;SDS011;551;48.524;9.056;2023-06-14T12:56:23;5.43;;;4.93;;
505;SDS011;551;48.524;9.056;2023-06-14T12:58:48;6.40;;;5.77;;
505;SDS011;551;48.524;9.056;2023-06-14T13:01:13;6.77;;;5.10;;
505;SDS011;551;48.524;9.056;2023-06-14T13:03:39;5.53;;;5.03;;
505;SDS011;551;48.524;9.056;2023-06-14T13:06:05;8.20;;;5.23;;
505;SDS011;551;48.524;9.056;2023-06-14T13:08:30;11.30;;;5.00;;
505;SDS011;551;48.524;9.056;2023-06-14T13:10:56;12.87;;;5.70;;
505;SDS011;551;48.524;9.056;2023-06-14T13:13:22;7.10;;;5.33;;
505;SDS011;551;48.524;9.056;2023-06-14T13:15:48;6.43;;;5.20;;
505;SDS011;551;48.524;9.056;2023-06-14T13:18:14;5.53;;;5.00;;
505;SDS011;551;48.524;9.056;2023-06-14T13:20:40;7.93;;;5.50;;
505;SDS011;551;48.524;9.056;2023-06-14T13:23:06;9.70;;;5.20;;
505;SDS011;551;48.524;9.056;2023-06-14T13:25:35;6.13;;;5.53;;
505;SDS011;551;48.524;9.056;2023-06-14T13:28:03;6.07;;;5.50;;
505;SDS011;551;48.524;9.056;2023-06-14T13:30:29;8.13;;;6.07;;
505;SDS011;551;48.524;9.056;2023-06-14T13:32:55;5.50;;;4.90;;
505;SDS011;551;48.524;9.056;2023-06-14T13:35:21;5.40;;;5.00;;
505;SDS011;551;48.524;9.056;2023-06-14T13:37:47;5.77;;;5.20;;
505;SDS011;551;48.524;9.056;2023-06-14T13:40:16;9.00;;;6.10;;
505;SDS011;551;48.524;9.056;2023-06-14T13:42:41;9.00;;;6.00;;
505;SDS011;551;48.524;9.056;2023-06-14T13:45:07;10.53;;;5.80;;
505;SDS011;551;48.524;9.056;2023-06-14T13:47:33;6.60;;;5.90;;
505;SDS011;551;48.524;9.056;2023-06-14T13:49:59;9.30;;;6.30;;
505;SDS011;551;48.524;9.056;2023-06-14T13:52:25;7.00;;;5.67;;
505;SDS011;551;48.524;9.056;2023-06-14T13:54:51;6.67;;;6.07;;
505;SDS011;551;48.524;9.056;2023-06-14T13:57:16;6.37;;;5.70;;
505;SDS011;551;48.524;9.056;2023-06-14T13:59:42;6.83;;;5.87;;
505;SDS011;551;48.524;9.056;2023-06-14T14:02:11;5.60;;;4.83;;
505;SDS011;551;48.524;9.056;2023-06-14T14:04:38;6.00;;;4.97;;
505;SDS011;551;48.524;9.056;2023-06-14T14:07:04;10.77;;;5.50;;
505;SDS011;551;48.524;9.056;2023-06-14T14:09:31;9.13;;;5.20;;
505;SDS011;551;48.524;9.056;2023-06-14T14:12:00;5.70;;;5.00;;
505;SDS011;551;48.524;9.056;2023-06-14T14:14:30;12.63;;;4.73;;
505;SDS011;551;48.524;9.056;2023-06-14T14:16:57;7.50;;;5.30;;
505;SDS011;551;48.524;9.056;2023-06-14T14:19:22;5.30;;;4.87;;
505;SDS011;551;48.524;9.056;2023-06-14T14:21:48;8.03;;;5.30;;
505;SDS011;551;48.524;9.056;2023-06-14T14:24:14;6.93;;;5.70;;
505;SDS011;551;48.524;9.056;2023-06-14T14:26:40;8.50;;;5.17;;
505;SDS011;551;48.524;9.056;2023-06-14T14:29:06;8.73;;;5.57;;
505;SDS011;551;48.524;9.056;2023-06-14T14:31:31;5.63;;;5.00;;
505;SDS011;551;48.524;9.056;2023-06-14T14:33:57;6.27;;;5.70;;
505;SDS011;551;48.524;9.056;2023-06-14T14:36:23;5.20;;;4.80;;
505;SDS011;551;48.524;9.056;2023-06-14T14:38:48;7.63;;;5.20;;
505;SDS011;551;48.524;9.056;2023-06-14T14:41:16;6.53;;;5.50;;
505;SDS011;551;48.524;9.056;2023-06-14T14:43:42;5.60;;;5.10;;
505;SDS011;551;48.524;9.056;2023-06-14T14:46:07;6.40;;;5.03;;
505;SDS011;551;48.524;9.056;2023-06-14T14:48:33;6.50;;;4.97;;
505;SDS011;551;48.524;9.056;2023-06-14T14:50:58;5.93;;;5.40;;
505;SDS011;551;48.524;9.056;2023-06-14T14:53:24;12.03;;;6.00;;
505;SDS011;551;48.524;9.056;2023-06-14T14:55:49;7.73;;;5.33;;
505;SDS011;551;48.524;9.056;2023-06-14T14:58:15;5.70;;;5.20;;
505;SDS011;551;48.524;9.056;2023-06-14T15:00:44;5.53;;;5.03;;
505;SDS011;551;48.524;9.056;2023-06-14T15:03:10;5.90;;;5.40;;
505;SDS011;551;48.524;9.056;2023-06-14T15:05:36;8.20;;;5.33;;
505;SDS011;551;48.524;9.056;2023-06-14T15:08:02;5.90;;;5.00;;
505;SDS011;551;48.524;9.056;2023-06-14T15:10:28;5.73;;;5.20;;
505;SDS011;551;48.524;9.056;2023-06-14T15:12:54;8.50;;;5.63;;
505;SDS011;551;48.524;9.056;2023-06-14T15:15:19;4.97;;;4.47;;
505;SDS011;551;48.524;9.056;2023-06-14T15:17:45;5.30;;;4.80;;
505;SDS011;551;48.524;9.056;2023-06-14T15:20:10;5.90;;;4.87;;
505;SDS011;551;48.524;9.056;2023-06-14T15:22:37;6.57;;;5.20;;
505;SDS011;551;48.524;9.056;2023-06-14T15:25:03;5.83;;;5.00;;
505;SDS011;551;48.524;9.056;2023-06-14T15:27:29;5.00;;;4.50;;
505;SDS011;551;48.524;9.056;2023-06-14T15:29:54;5.73;;;4.80;;
505;SDS011;551;48.524;9.056;2023-06-14T15:32:20;7.70;;;5.17;;
505;SDS011;551;48.524;9.056;2023-06-14T15:34:45;5.30;;;4.80;;
505;SDS011;551;48.524;9.056;2023-06-14T15:37:11;9.43;;;5.60;;
505;SDS011;551;48.524;9.056;2023-06-14T15:39:37;5.00;;;4.50;;
505;SDS011;551;48.524;9.056;2023-06-14T15:42:03;5.60;;;5.10;;
505;SDS011;551;48.524;9.056;2023-06-14T15:44:30;5.57;;;5.07;;
505;SDS011;551;48.524;9.056;2023-06-14T15:46:56;6.30;;;5.57;;
505;SDS011;551;48.524;9.056;2023-06-14T15:49:21;6.37;;;5.03;;
505;SDS011;551;48.524;9.056;2023-06-14T15:51:47;5.93;;;5.43;;
505;SDS011;551;48.524;9.056;2023-06-14T15:54:12;8.10;;;5.80;;
505;SDS011;551;48.524;9.056;2023-06-14T15:56:38;6.53;;;5.93;;
505;SDS011;551;48.524;9.056;2023-06-14T15:59:04;5.80;;;5.23;;
505;SDS011;551;48.524;9.056;2023-06-14T16:01:29;5.17;;;4.67;;
505;SDS011;551;48.524;9.056;2023-06-14T16:03:55;5.67;;;5.00;;